sensor_id;sensor_type;location;lat;lon;timestamp;temperature;humidity
152;DHT22;68;48.792;9.164;2024-03-08T00:01:26;3.40;92.90
152;DHT22;68;48.792;9.164;2024-03-08T00:03:53;3.30;93.40
152;DHT22;68;48.792;9.164;2024-03-08T00:06:20;3.40;93.70
152;DHT22;68;48.792;9.164;2024-03-08T00:08:47;3.40;92.90
152;DHT22;68;48.792;9.164;2024-03-08T00:11:13;3.40;93.20
152;DHT22;68;48.792;9.164;2024-03-08T00:13:42;3.60;94.40
152;DHT22;68;48.792;9.164;2024-03-08T00:16:10;3.60;94.50
152;DHT22;68;48.792;9.164;2024-03-08T00:18:37;3.90;94.80
152;DHT22;68;48.792;9.164;2024-03-08T00:21:04;4.00;96.70
152;DHT22;68;48.792;9.164;2024-03-08T00:23:31;3.90;96.70
152;DHT22;68;48.792;9.164;2024-03-08T00:25:58;3.80;96.50
152;DHT22;68;48.792;9.164;2024-03-08T00:28:25;3.70;94.30
152;DHT22;68;48.792;9.164;2024-03-08T00:30:54;3.80;96.30
152;DHT22;68;48.792;9.164;2024-03-08T00:33:21;3.50;94.70
152;DHT22;68;48.792;9.164;2024-03-08T00:35:47;3.60;94.80
152;DHT22;68;48.792;9.164;2024-03-08T00:38:14;3.30;95.10
152;DHT22;68;48.792;9.164;2024-03-08T00:40:41;3.20;92.40
152;DHT22;68;48.792;9.164;2024-03-08T00:43:08;3.60;93.90
152;DHT22;68;48.792;9.164;2024-03-08T00:45:34;3.70;96.30
152;DHT22;68;48.792;9.164;2024-03-08T00:48:04;3.70;95.90
152;DHT22;68;48.792;9.164;2024-03-08T00:50:31;3.50;95.90
152;DHT22;68;48.792;9.164;2024-03-08T00:52:59;3.30;95.40
152;DHT22;68;48.792;9.164;2024-03-08T00:55:26;3.10;93.20
152;DHT22;68;48.792;9.164;2024-03-08T00:57:53;2.90;92.20
152;DHT22;68;48.792;9.164;2024-03-08T01:00:20;2.90;92.20
152;DHT22;68;48.792;9.164;2024-03-08T01:02:47;3.00;92.00
152;DHT22;68;48.792;9.164;2024-03-08T01:05:15;2.90;92.40
152;DHT22;68;48.792;9.164;2024-03-08T01:07:41;3.00;90.60
152;DHT22;68;48.792;9.164;2024-03-08T01:10:09;2.90;93.30
152;DHT22;68;48.792;9.164;2024-03-08T01:12:36;3.00;90.30
152;DHT22;68;48.792;9.164;2024-03-08T01:15:03;2.90;90.10
152;DHT22;68;48.792;9.164;2024-03-08T01:17:30;2.80;92.60
152;DHT22;68;48.792;9.164;2024-03-08T01:19:57;2.60;92.50
152;DHT22;68;48.792;9.164;2024-03-08T01:22:25;2.60;92.00
152;DHT22;68;48.792;9.164;2024-03-08T01:24:53;2.80;88.50
152;DHT22;68;48.792;9.164;2024-03-08T01:27:20;2.80;90.40
152;DHT22;68;48.792;9.164;2024-03-08T01:29:47;2.60;90.40
152;DHT22;68;48.792;9.164;2024-03-08T01:32:13;2.50;87.70
152;DHT22;68;48.792;9.164;2024-03-08T01:34:40;2.50;88.00
152;DHT22;68;48.792;9.164;2024-03-08T01:37:07;2.40;87.70
152;DHT22;68;48.792;9.164;2024-03-08T01:39:35;2.40;87.80
152;DHT22;68;48.792;9.164;2024-03-08T01:42:02;2.30;88.60
152;DHT22;68;48.792;9.164;2024-03-08T01:44:29;2.30;89.70
152;DHT22;68;48.792;9.164;2024-03-08T01:46:57;2.30;90.60
152;DHT22;68;48.792;9.164;2024-03-08T01:49:24;2.40;89.40
152;DHT22;68;48.792;9.164;2024-03-08T01:51:52;2.30;91.50
152;DHT22;68;48.792;9.164;2024-03-08T01:54:22;2.30;91.00
152;DHT22;68;48.792;9.164;2024-03-08T01:56:51;2.30;91.20
152;DHT22;68;48.792;9.164;2024-03-08T01:59:18;2.30;91.70
152;DHT22;68;48.792;9.164;2024-03-08T02:01:45;2.20;91.30
152;DHT22;68;48.792;9.164;2024-03-08T02:04:13;2.20;91.10
152;DHT22;68;48.792;9.164;2024-03-08T02:06:40;2.40;90.30
152;DHT22;68;48.792;9.164;2024-03-08T02:09:06;2.50;90.90
152;DHT22;68;48.792;9.164;2024-03-08T02:11:34;2.60;89.10
152;DHT22;68;48.792;9.164;2024-03-08T02:14:02;2.50;90.90
152;DHT22;68;48.792;9.164;2024-03-08T02:16:31;2.60;89.60
152;DHT22;68;48.792;9.164;2024-03-08T02:18:58;2.50;92.80
152;DHT22;68;48.792;9.164;2024-03-08T02:21:27;2.30;92.90
152;DHT22;68;48.792;9.164;2024-03-08T02:23:53;2.40;91.70
152;DHT22;68;48.792;9.164;2024-03-08T02:26:20;2.30;94.00
152;DHT22;68;48.792;9.164;2024-03-08T02:28:48;2.30;94.60
152;DHT22;68;48.792;9.164;2024-03-08T02:31:15;2.40;93.20
152;DHT22;68;48.792;9.164;2024-03-08T02:33:42;2.50;92.40
152;DHT22;68;48.792;9.164;2024-03-08T02:36:09;2.30;94.90
152;DHT22;68;48.792;9.164;2024-03-08T02:38:37;2.40;93.10
152;DHT22;68;48.792;9.164;2024-03-08T02:41:04;2.50;95.50
152;DHT22;68;48.792;9.164;2024-03-08T02:43:31;2.30;95.60
152;DHT22;68;48.792;9.164;2024-03-08T02:45:57;2.40;93.90
152;DHT22;68;48.792;9.164;2024-03-08T02:48:25;2.30;95.20
152;DHT22;68;48.792;9.164;2024-03-08T02:50:52;2.40;93.70
152;DHT22;68;48.792;9.164;2024-03-08T02:53:19;2.20;92.20
152;DHT22;68;48.792;9.164;2024-03-08T02:55:47;2.20;91.10
152;DHT22;68;48.792;9.164;2024-03-08T02:58:14;2.10;94.00
152;DHT22;68;48.792;9.164;2024-03-08T03:00:40;2.20;91.80
152;DHT22;68;48.792;9.164;2024-03-08T03:03:09;2.20;92.80
152;DHT22;68;48.792;9.164;2024-03-08T03:05:36;2.30;90.70
152;DHT22;68;48.792;9.164;2024-03-08T03:08:03;2.30;91.30
152;DHT22;68;48.792;9.164;2024-03-08T03:10:34;2.20;94.40
152;DHT22;68;48.792;9.164;2024-03-08T03:13:03;2.10;95.10
152;DHT22;68;48.792;9.164;2024-03-08T03:15:30;2.20;95.60
152;DHT22;68;48.792;9.164;2024-03-08T03:17:56;2.40;94.90
152;DHT22;68;48.792;9.164;2024-03-08T03:20:23;2.60;95.50
152;DHT22;68;48.792;9.164;2024-03-08T03:22:52;2.80;96.40
152;DHT22;68;48.792;9.164;2024-03-08T03:25:19;2.80;96.70
152;DHT22;68;48.792;9.164;2024-03-08T03:27:51;2.30;96.40
152;DHT22;68;48.792;9.164;2024-03-08T03:30:23;2.10;94.60
152;DHT22;68;48.792;9.164;2024-03-08T03:32:52;2.40;93.10
152;DHT22;68;48.792;9.164;2024-03-08T03:35:20;2.60;96.60
152;DHT22;68;48.792;9.164;2024-03-08T03:37:47;2.70;96.80
152;DHT22;68;48.792;9.164;2024-03-08T03:40:27;2.40;96.90
152;DHT22;68;48.792;9.164;2024-03-08T03:42:53;2.50;96.40
152;DHT22;68;48.792;9.164;2024-03-08T03:45:20;2.50;96.60
152;DHT22;68;48.792;9.164;2024-03-08T03:47:48;2.30;94.90
152;DHT22;68;48.792;9.164;2024-03-08T03:50:15;2.30;93.90
152;DHT22;68;48.792;9.164;2024-03-08T03:52:44;2.20;95.70
152;DHT22;68;48.792;9.164;2024-03-08T03:55:11;2.10;94.30
152;DHT22;68;48.792;9.164;2024-03-08T03:57:38;2.10;91.80
152;DHT22;68;48.792;9.164;2024-03-08T04:00:06;2.20;92.50
152;DHT22;68;48.792;9.164;2024-03-08T04:02:36;2.20;95.40
152;DHT22;68;48.792;9.164;2024-03-08T04:05:05;2.10;93.10
152;DHT22;68;48.792;9.164;2024-03-08T04:07:33;2.20;94.70
152;DHT22;68;48.792;9.164;2024-03-08T04:10:00;2.10;91.80
152;DHT22;68;48.792;9.164;2024-03-08T04:12:27;2.00;91.80
152;DHT22;68;48.792;9.164;2024-03-08T04:14:55;1.90;91.80
152;DHT22;68;48.792;9.164;2024-03-08T04:17:22;1.80;89.90
152;DHT22;68;48.792;9.164;2024-03-08T04:19:49;1.80;89.40
152;DHT22;68;48.792;9.164;2024-03-08T04:22:17;1.80;89.20
152;DHT22;68;48.792;9.164;2024-03-08T04:24:45;1.70;87.30
152;DHT22;68;48.792;9.164;2024-03-08T04:27:12;1.80;87.30
152;DHT22;68;48.792;9.164;2024-03-08T04:29:39;2.00;90.80
152;DHT22;68;48.792;9.164;2024-03-08T04:32:07;2.20;92.70
152;DHT22;68;48.792;9.164;2024-03-08T04:34:34;2.40;94.00
152;DHT22;68;48.792;9.164;2024-03-08T04:37:01;2.10;95.10
152;DHT22;68;48.792;9.164;2024-03-08T04:39:31;2.00;92.70
152;DHT22;68;48.792;9.164;2024-03-08T04:42:02;1.80;90.80
152;DHT22;68;48.792;9.164;2024-03-08T04:44:29;1.80;87.30
152;DHT22;68;48.792;9.164;2024-03-08T04:46:57;1.80;89.10
152;DHT22;68;48.792;9.164;2024-03-08T04:49:23;1.80;91.00
152;DHT22;68;48.792;9.164;2024-03-08T04:51:50;1.60;89.80
152;DHT22;68;48.792;9.164;2024-03-08T04:54:17;1.60;85.00
152;DHT22;68;48.792;9.164;2024-03-08T04:56:45;1.60;86.40
152;DHT22;68;48.792;9.164;2024-03-08T04:59:12;1.60;85.80
152;DHT22;68;48.792;9.164;2024-03-08T05:01:39;1.60;85.30
152;DHT22;68;48.792;9.164;2024-03-08T05:04:06;1.80;85.70
152;DHT22;68;48.792;9.164;2024-03-08T05:06:32;1.90;88.20
152;DHT22;68;48.792;9.164;2024-03-08T05:08:59;1.90;91.30
152;DHT22;68;48.792;9.164;2024-03-08T05:11:26;1.90;90.30
152;DHT22;68;48.792;9.164;2024-03-08T05:13:54;2.00;92.60
152;DHT22;68;48.792;9.164;2024-03-08T05:16:21;1.80;92.40
152;DHT22;68;48.792;9.164;2024-03-08T05:18:50;1.80;91.90
152;DHT22;68;48.792;9.164;2024-03-08T05:21:17;1.70;89.30
152;DHT22;68;48.792;9.164;2024-03-08T05:23:45;1.70;91.00
152;DHT22;68;48.792;9.164;2024-03-08T05:26:12;1.60;89.00
152;DHT22;68;48.792;9.164;2024-03-08T05:28:40;1.60;85.60
152;DHT22;68;48.792;9.164;2024-03-08T05:31:08;1.80;87.90
152;DHT22;68;48.792;9.164;2024-03-08T05:33:35;1.80;89.90
152;DHT22;68;48.792;9.164;2024-03-08T05:36:02;1.70;90.30
152;DHT22;68;48.792;9.164;2024-03-08T05:38:29;1.60;89.30
152;DHT22;68;48.792;9.164;2024-03-08T05:40:56;1.60;87.30
152;DHT22;68;48.792;9.164;2024-03-08T05:43:22;1.80;87.60
152;DHT22;68;48.792;9.164;2024-03-08T05:45:50;1.70;90.30
152;DHT22;68;48.792;9.164;2024-03-08T05:48:18;1.80;88.40
152;DHT22;68;48.792;9.164;2024-03-08T05:50:45;1.50;89.90
152;DHT22;68;48.792;9.164;2024-03-08T05:53:12;1.70;88.00
152;DHT22;68;48.792;9.164;2024-03-08T05:55:39;1.80;90.00
152;DHT22;68;48.792;9.164;2024-03-08T05:58:06;1.60;89.70
152;DHT22;68;48.792;9.164;2024-03-08T06:00:33;1.50;86.70
152;DHT22;68;48.792;9.164;2024-03-08T06:03:02;1.60;87.30
152;DHT22;68;48.792;9.164;2024-03-08T06:05:30;1.50;86.40
152;DHT22;68;48.792;9.164;2024-03-08T06:07:57;1.40;84.70
152;DHT22;68;48.792;9.164;2024-03-08T06:10:23;1.70;86.50
152;DHT22;68;48.792;9.164;2024-03-08T06:12:50;1.70;88.50
152;DHT22;68;48.792;9.164;2024-03-08T06:15:17;2.00;91.60
152;DHT22;68;48.792;9.164;2024-03-08T06:17:46;2.00;93.40
152;DHT22;68;48.792;9.164;2024-03-08T06:20:13;2.30;95.20
152;DHT22;68;48.792;9.164;2024-03-08T06:22:41;2.30;94.60
152;DHT22;68;48.792;9.164;2024-03-08T06:25:10;2.50;96.40
152;DHT22;68;48.792;9.164;2024-03-08T06:27:39;2.40;97.40
152;DHT22;68;48.792;9.164;2024-03-08T06:30:07;2.50;97.40
152;DHT22;68;48.792;9.164;2024-03-08T06:32:35;2.60;97.80
152;DHT22;68;48.792;9.164;2024-03-08T06:35:02;2.60;97.90
152;DHT22;68;48.792;9.164;2024-03-08T06:37:31;2.60;97.60
152;DHT22;68;48.792;9.164;2024-03-08T06:39:59;2.60;97.60
152;DHT22;68;48.792;9.164;2024-03-08T06:42:26;2.60;97.70
152;DHT22;68;48.792;9.164;2024-03-08T06:44:53;2.60;97.50
152;DHT22;68;48.792;9.164;2024-03-08T06:47:25;2.50;97.80
152;DHT22;68;48.792;9.164;2024-03-08T06:49:52;2.40;97.20
152;DHT22;68;48.792;9.164;2024-03-08T06:52:18;2.60;97.30
152;DHT22;68;48.792;9.164;2024-03-08T06:54:45;2.80;98.00
152;DHT22;68;48.792;9.164;2024-03-08T06:57:13;2.80;98.00
152;DHT22;68;48.792;9.164;2024-03-08T06:59:42;2.60;97.20
152;DHT22;68;48.792;9.164;2024-03-08T07:02:08;2.60;97.50
152;DHT22;68;48.792;9.164;2024-03-08T07:04:35;2.70;97.60
152;DHT22;68;48.792;9.164;2024-03-08T07:07:03;2.90;97.80
152;DHT22;68;48.792;9.164;2024-03-08T07:09:30;3.10;98.00
152;DHT22;68;48.792;9.164;2024-03-08T07:11:58;3.00;97.90
152;DHT22;68;48.792;9.164;2024-03-08T07:14:26;3.10;97.20
152;DHT22;68;48.792;9.164;2024-03-08T07:16:53;3.20;98.40
152;DHT22;68;48.792;9.164;2024-03-08T07:19:19;3.20;97.70
152;DHT22;68;48.792;9.164;2024-03-08T07:21:47;3.00;97.60
152;DHT22;68;48.792;9.164;2024-03-08T07:24:14;3.00;97.70
152;DHT22;68;48.792;9.164;2024-03-08T07:26:58;3.10;97.80
152;DHT22;68;48.792;9.164;2024-03-08T07:29:26;3.10;97.70
152;DHT22;68;48.792;9.164;2024-03-08T07:31:53;3.20;98.10
152;DHT22;68;48.792;9.164;2024-03-08T07:34:33;3.10;98.10
152;DHT22;68;48.792;9.164;2024-03-08T07:37:00;3.00;97.80
152;DHT22;68;48.792;9.164;2024-03-08T07:39:26;3.10;97.60
152;DHT22;68;48.792;9.164;2024-03-08T07:41:53;3.20;97.70
152;DHT22;68;48.792;9.164;2024-03-08T07:44:20;3.40;97.60
152;DHT22;68;48.792;9.164;2024-03-08T07:46:48;3.40;97.20
152;DHT22;68;48.792;9.164;2024-03-08T07:49:15;3.40;97.60
152;DHT22;68;48.792;9.164;2024-03-08T07:51:42;3.70;97.40
152;DHT22;68;48.792;9.164;2024-03-08T07:54:08;3.70;97.60
152;DHT22;68;48.792;9.164;2024-03-08T07:56:35;3.60;97.30
152;DHT22;68;48.792;9.164;2024-03-08T07:59:03;3.50;96.60
152;DHT22;68;48.792;9.164;2024-03-08T08:01:30;3.60;97.20
152;DHT22;68;48.792;9.164;2024-03-08T08:04:00;3.40;96.70
152;DHT22;68;48.792;9.164;2024-03-08T08:06:27;3.10;97.40
152;DHT22;68;48.792;9.164;2024-03-08T08:08:57;3.20;97.80
152;DHT22;68;48.792;9.164;2024-03-08T08:11:26;3.50;98.10
152;DHT22;68;48.792;9.164;2024-03-08T08:13:53;3.60;96.20
152;DHT22;68;48.792;9.164;2024-03-08T08:16:20;3.70;96.20
152;DHT22;68;48.792;9.164;2024-03-08T08:18:47;3.80;95.70
152;DHT22;68;48.792;9.164;2024-03-08T08:21:15;4.00;95.50
152;DHT22;68;48.792;9.164;2024-03-08T08:23:43;4.10;95.20
152;DHT22;68;48.792;9.164;2024-03-08T08:26:10;4.10;94.90
152;DHT22;68;48.792;9.164;2024-03-08T08:28:37;3.90;95.10
152;DHT22;68;48.792;9.164;2024-03-08T08:31:06;4.10;95.20
152;DHT22;68;48.792;9.164;2024-03-08T08:33:33;4.20;94.20
152;DHT22;68;48.792;9.164;2024-03-08T08:36:00;4.20;93.50
152;DHT22;68;48.792;9.164;2024-03-08T08:38:30;4.00;93.80
152;DHT22;68;48.792;9.164;2024-03-08T08:40:57;3.90;94.80
152;DHT22;68;48.792;9.164;2024-03-08T08:43:25;3.80;95.60
152;DHT22;68;48.792;9.164;2024-03-08T08:45:52;3.80;96.00
152;DHT22;68;48.792;9.164;2024-03-08T08:48:20;3.60;96.30
152;DHT22;68;48.792;9.164;2024-03-08T08:50:46;3.60;96.20
152;DHT22;68;48.792;9.164;2024-03-08T08:53:14;3.70;96.20
152;DHT22;68;48.792;9.164;2024-03-08T08:55:43;3.80;96.30
152;DHT22;68;48.792;9.164;2024-03-08T08:58:11;3.90;95.90
152;DHT22;68;48.792;9.164;2024-03-08T09:00:39;3.90;96.20
152;DHT22;68;48.792;9.164;2024-03-08T09:03:06;4.10;95.90
152;DHT22;68;48.792;9.164;2024-03-08T09:05:33;4.20;94.30
152;DHT22;68;48.792;9.164;2024-03-08T09:08:00;4.00;94.60
152;DHT22;68;48.792;9.164;2024-03-08T09:10:28;3.70;95.80
152;DHT22;68;48.792;9.164;2024-03-08T09:12:56;3.80;95.90
152;DHT22;68;48.792;9.164;2024-03-08T09:15:24;3.90;95.50
152;DHT22;68;48.792;9.164;2024-03-08T09:17:53;4.00;95.50
152;DHT22;68;48.792;9.164;2024-03-08T09:20:20;4.00;96.10
152;DHT22;68;48.792;9.164;2024-03-08T09:22:47;4.10;96.10
152;DHT22;68;48.792;9.164;2024-03-08T09:25:14;4.10;95.30
152;DHT22;68;48.792;9.164;2024-03-08T09:27:41;3.90;95.50
152;DHT22;68;48.792;9.164;2024-03-08T09:30:10;3.90;95.90
152;DHT22;68;48.792;9.164;2024-03-08T09:32:38;3.90;95.80
152;DHT22;68;48.792;9.164;2024-03-08T09:35:06;4.20;95.60
152;DHT22;68;48.792;9.164;2024-03-08T09:37:33;4.30;95.00
152;DHT22;68;48.792;9.164;2024-03-08T09:40:00;4.10;95.60
152;DHT22;68;48.792;9.164;2024-03-08T09:42:30;4.00;95.50
152;DHT22;68;48.792;9.164;2024-03-08T09:44:57;4.00;95.80
152;DHT22;68;48.792;9.164;2024-03-08T09:47:28;4.20;95.00
152;DHT22;68;48.792;9.164;2024-03-08T09:49:59;4.10;95.00
152;DHT22;68;48.792;9.164;2024-03-08T09:52:26;3.90;95.70
152;DHT22;68;48.792;9.164;2024-03-08T09:54:56;4.10;96.40
152;DHT22;68;48.792;9.164;2024-03-08T09:57:23;4.20;96.30
152;DHT22;68;48.792;9.164;2024-03-08T09:59:51;4.30;95.20
152;DHT22;68;48.792;9.164;2024-03-08T10:02:18;4.40;95.30
152;DHT22;68;48.792;9.164;2024-03-08T10:04:47;4.30;94.40
152;DHT22;68;48.792;9.164;2024-03-08T10:07:14;4.30;95.30
152;DHT22;68;48.792;9.164;2024-03-08T10:09:41;4.20;94.70
152;DHT22;68;48.792;9.164;2024-03-08T10:12:12;4.50;95.00
152;DHT22;68;48.792;9.164;2024-03-08T10:14:40;4.60;93.80
152;DHT22;68;48.792;9.164;2024-03-08T10:17:07;4.40;94.40
152;DHT22;68;48.792;9.164;2024-03-08T10:19:34;4.50;95.00
152;DHT22;68;48.792;9.164;2024-03-08T10:22:03;4.60;95.20
152;DHT22;68;48.792;9.164;2024-03-08T10:24:30;4.50;93.90
152;DHT22;68;48.792;9.164;2024-03-08T10:26:59;4.50;95.00
152;DHT22;68;48.792;9.164;2024-03-08T10:29:27;4.50;94.50
152;DHT22;68;48.792;9.164;2024-03-08T10:31:54;4.60;93.50
152;DHT22;68;48.792;9.164;2024-03-08T10:34:22;4.60;94.80
152;DHT22;68;48.792;9.164;2024-03-08T10:36:50;4.80;93.90
152;DHT22;68;48.792;9.164;2024-03-08T10:39:22;5.10;91.80
152;DHT22;68;48.792;9.164;2024-03-08T10:41:53;4.80;91.90
152;DHT22;68;48.792;9.164;2024-03-08T10:44:33;4.40;93.10
152;DHT22;68;48.792;9.164;2024-03-08T10:47:13;4.60;92.80
152;DHT22;68;48.792;9.164;2024-03-08T10:49:50;4.50;93.90
152;DHT22;68;48.792;9.164;2024-03-08T10:52:18;4.60;93.80
152;DHT22;68;48.792;9.164;2024-03-08T10:54:47;4.70;93.40
152;DHT22;68;48.792;9.164;2024-03-08T10:57:18;4.80;93.10
152;DHT22;68;48.792;9.164;2024-03-08T10:59:47;4.70;93.80
152;DHT22;68;48.792;9.164;2024-03-08T11:02:16;4.90;93.10
152;DHT22;68;48.792;9.164;2024-03-08T11:04:47;5.10;93.20
152;DHT22;68;48.792;9.164;2024-03-08T11:07:16;5.50;91.00
152;DHT22;68;48.792;9.164;2024-03-08T11:09:47;5.80;89.60
152;DHT22;68;48.792;9.164;2024-03-08T11:12:25;5.70;88.90
152;DHT22;68;48.792;9.164;2024-03-08T11:14:55;5.30;90.30
152;DHT22;68;48.792;9.164;2024-03-08T11:20:10;5.90;89.50
152;DHT22;68;48.792;9.164;2024-03-08T11:22:42;5.80;89.10
152;DHT22;68;48.792;9.164;2024-03-08T11:25:32;5.60;89.80
152;DHT22;68;48.792;9.164;2024-03-08T11:28:16;5.70;91.20
152;DHT22;68;48.792;9.164;2024-03-08T11:30:44;5.80;89.60
152;DHT22;68;48.792;9.164;2024-03-08T11:33:12;5.70;90.20
152;DHT22;68;48.792;9.164;2024-03-08T11:35:40;5.80;90.20
152;DHT22;68;48.792;9.164;2024-03-08T11:38:11;6.40;88.80
152;DHT22;68;48.792;9.164;2024-03-08T11:40:40;6.30;87.30
152;DHT22;68;48.792;9.164;2024-03-08T11:43:08;6.80;85.30
152;DHT22;68;48.792;9.164;2024-03-08T11:45:35;6.30;86.40
152;DHT22;68;48.792;9.164;2024-03-08T11:48:03;6.50;87.80
152;DHT22;68;48.792;9.164;2024-03-08T11:50:30;6.50;85.90
152;DHT22;68;48.792;9.164;2024-03-08T11:53:02;5.90;88.90
152;DHT22;68;48.792;9.164;2024-03-08T11:55:29;7.40;85.90
152;DHT22;68;48.792;9.164;2024-03-08T11:58:03;8.30;81.50
152;DHT22;68;48.792;9.164;2024-03-08T12:00:30;8.90;79.80
152;DHT22;68;48.792;9.164;2024-03-08T12:03:07;9.90;77.00
152;DHT22;68;48.792;9.164;2024-03-08T12:05:35;10.90;74.00
152;DHT22;68;48.792;9.164;2024-03-08T12:08:04;10.80;72.70
152;DHT22;68;48.792;9.164;2024-03-08T12:10:32;11.30;70.50
152;DHT22;68;48.792;9.164;2024-03-08T12:13:02;8.70;77.50
152;DHT22;68;48.792;9.164;2024-03-08T12:15:29;8.80;78.90
152;DHT22;68;48.792;9.164;2024-03-08T12:17:59;10.30;75.90
152;DHT22;68;48.792;9.164;2024-03-08T12:20:27;12.00;70.30
152;DHT22;68;48.792;9.164;2024-03-08T12:22:56;12.00;68.80
152;DHT22;68;48.792;9.164;2024-03-08T12:25:26;11.90;67.90
152;DHT22;68;48.792;9.164;2024-03-08T12:27:54;10.90;72.50
152;DHT22;68;48.792;9.164;2024-03-08T12:30:25;10.60;72.20
152;DHT22;68;48.792;9.164;2024-03-08T12:32:54;9.50;74.70
152;DHT22;68;48.792;9.164;2024-03-08T12:35:24;9.10;81.60
152;DHT22;68;48.792;9.164;2024-03-08T12:37:52;9.40;81.00
152;DHT22;68;48.792;9.164;2024-03-08T12:40:24;10.80;73.40
152;DHT22;68;48.792;9.164;2024-03-08T12:42:52;11.40;73.40
152;DHT22;68;48.792;9.164;2024-03-08T12:45:19;11.80;70.90
152;DHT22;68;48.792;9.164;2024-03-08T12:47:51;11.70;70.70
152;DHT22;68;48.792;9.164;2024-03-08T12:50:19;11.50;71.00
152;DHT22;68;48.792;9.164;2024-03-08T12:52:46;9.90;73.70
152;DHT22;68;48.792;9.164;2024-03-08T12:55:14;8.90;80.20
152;DHT22;68;48.792;9.164;2024-03-08T12:57:42;9.00;78.20
152;DHT22;68;48.792;9.164;2024-03-08T13:00:09;9.00;80.40
152;DHT22;68;48.792;9.164;2024-03-08T13:02:39;8.80;80.10
152;DHT22;68;48.792;9.164;2024-03-08T13:05:09;9.00;77.40
152;DHT22;68;48.792;9.164;2024-03-08T13:07:36;8.10;82.10
152;DHT22;68;48.792;9.164;2024-03-08T13:10:04;8.00;82.00
152;DHT22;68;48.792;9.164;2024-03-08T13:12:32;8.20;82.10
152;DHT22;68;48.792;9.164;2024-03-08T13:15:02;8.80;81.10
152;DHT22;68;48.792;9.164;2024-03-08T13:17:30;8.90;78.50
152;DHT22;68;48.792;9.164;2024-03-08T13:19:57;8.70;80.20
152;DHT22;68;48.792;9.164;2024-03-08T13:22:26;9.30;79.60
152;DHT22;68;48.792;9.164;2024-03-08T13:24:53;9.90;77.80
152;DHT22;68;48.792;9.164;2024-03-08T13:27:20;9.80;77.80
152;DHT22;68;48.792;9.164;2024-03-08T13:29:50;9.70;77.00
152;DHT22;68;48.792;9.164;2024-03-08T13:32:17;9.30;79.30
152;DHT22;68;48.792;9.164;2024-03-08T13:34:46;9.10;78.30
152;DHT22;68;48.792;9.164;2024-03-08T13:37:13;8.70;81.70
152;DHT22;68;48.792;9.164;2024-03-08T13:39:42;9.30;79.40
152;DHT22;68;48.792;9.164;2024-03-08T13:42:10;8.90;78.80
152;DHT22;68;48.792;9.164;2024-03-08T13:44:39;8.50;80.30
152;DHT22;68;48.792;9.164;2024-03-08T13:47:09;8.80;81.20
152;DHT22;68;48.792;9.164;2024-03-08T13:49:37;8.70;79.70
152;DHT22;68;48.792;9.164;2024-03-08T13:52:04;8.60;80.20
152;DHT22;68;48.792;9.164;2024-03-08T13:54:33;8.70;81.70
152;DHT22;68;48.792;9.164;2024-03-08T13:57:02;8.50;80.30
152;DHT22;68;48.792;9.164;2024-03-08T13:59:30;9.10;80.00
152;DHT22;68;48.792;9.164;2024-03-08T14:01:58;8.50;80.90
152;DHT22;68;48.792;9.164;2024-03-08T14:04:26;8.90;80.60
152;DHT22;68;48.792;9.164;2024-03-08T14:06:53;9.30;77.30
152;DHT22;68;48.792;9.164;2024-03-08T14:09:23;8.80;79.60
152;DHT22;68;48.792;9.164;2024-03-08T14:11:51;9.50;78.10
152;DHT22;68;48.792;9.164;2024-03-08T14:14:21;9.60;76.80
152;DHT22;68;48.792;9.164;2024-03-08T14:16:48;9.40;78.80
152;DHT22;68;48.792;9.164;2024-03-08T14:19:18;9.90;77.20
152;DHT22;68;48.792;9.164;2024-03-08T14:21:45;9.90;75.90
152;DHT22;68;48.792;9.164;2024-03-08T14:24:13;9.90;77.40
152;DHT22;68;48.792;9.164;2024-03-08T14:26:40;10.20;75.70
152;DHT22;68;48.792;9.164;2024-03-08T14:29:07;10.30;74.80
152;DHT22;68;48.792;9.164;2024-03-08T14:31:37;10.00;75.20
152;DHT22;68;48.792;9.164;2024-03-08T14:34:04;9.90;74.90
152;DHT22;68;48.792;9.164;2024-03-08T14:36:30;10.20;75.00
152;DHT22;68;48.792;9.164;2024-03-08T14:38:57;10.30;75.10
152;DHT22;68;48.792;9.164;2024-03-08T14:41:24;10.50;74.40
152;DHT22;68;48.792;9.164;2024-03-08T14:43:52;10.50;73.80
152;DHT22;68;48.792;9.164;2024-03-08T14:46:19;10.40;74.00
152;DHT22;68;48.792;9.164;2024-03-08T14:48:50;10.20;75.40
152;DHT22;68;48.792;9.164;2024-03-08T14:51:17;10.10;76.20
152;DHT22;68;48.792;9.164;2024-03-08T14:53:47;10.10;75.80
152;DHT22;68;48.792;9.164;2024-03-08T14:56:15;9.50;76.20
152;DHT22;68;48.792;9.164;2024-03-08T14:58:42;9.40;77.60
152;DHT22;68;48.792;9.164;2024-03-08T15:01:09;9.70;77.10
152;DHT22;68;48.792;9.164;2024-03-08T15:03:39;9.80;76.20
152;DHT22;68;48.792;9.164;2024-03-08T15:06:07;9.70;77.10
152;DHT22;68;48.792;9.164;2024-03-08T15:08:35;9.90;76.40
152;DHT22;68;48.792;9.164;2024-03-08T15:11:03;9.70;77.10
152;DHT22;68;48.792;9.164;2024-03-08T15:13:33;9.50;78.00
152;DHT22;68;48.792;9.164;2024-03-08T15:16:05;9.60;78.00
152;DHT22;68;48.792;9.164;2024-03-08T15:18:33;9.80;77.50
152;DHT22;68;48.792;9.164;2024-03-08T15:21:02;10.00;76.30
152;DHT22;68;48.792;9.164;2024-03-08T15:23:33;10.00;76.90
152;DHT22;68;48.792;9.164;2024-03-08T15:26:00;10.00;76.30
152;DHT22;68;48.792;9.164;2024-03-08T15:28:27;10.20;75.50
152;DHT22;68;48.792;9.164;2024-03-08T15:31:02;10.20;75.40
152;DHT22;68;48.792;9.164;2024-03-08T15:33:32;9.90;77.00
152;DHT22;68;48.792;9.164;2024-03-08T15:35:59;9.60;77.40
152;DHT22;68;48.792;9.164;2024-03-08T15:38:29;9.70;78.10
152;DHT22;68;48.792;9.164;2024-03-08T15:40:58;9.70;77.40
152;DHT22;68;48.792;9.164;2024-03-08T15:43:25;9.70;77.10
152;DHT22;68;48.792;9.164;2024-03-08T15:45:52;10.00;76.60
152;DHT22;68;48.792;9.164;2024-03-08T15:48:20;10.00;76.80
152;DHT22;68;48.792;9.164;2024-03-08T15:50:47;10.00;76.50
152;DHT22;68;48.792;9.164;2024-03-08T15:53:15;10.00;76.50
152;DHT22;68;48.792;9.164;2024-03-08T15:55:41;10.20;75.80
152;DHT22;68;48.792;9.164;2024-03-08T15:58:14;10.10;76.10
152;DHT22;68;48.792;9.164;2024-03-08T16:00:40;10.10;76.20
152;DHT22;68;48.792;9.164;2024-03-08T16:03:12;9.90;76.70
152;DHT22;68;48.792;9.164;2024-03-08T16:05:40;9.90;77.50
152;DHT22;68;48.792;9.164;2024-03-08T16:08:09;9.90;76.60
152;DHT22;68;48.792;9.164;2024-03-08T16:10:41;9.70;77.60
152;DHT22;68;48.792;9.164;2024-03-08T16:13:12;9.70;77.40
152;DHT22;68;48.792;9.164;2024-03-08T16:15:39;9.90;78.40
152;DHT22;68;48.792;9.164;2024-03-08T16:18:06;9.90;77.50
152;DHT22;68;48.792;9.164;2024-03-08T16:20:34;10.10;77.10
152;DHT22;68;48.792;9.164;2024-03-08T16:23:01;10.00;76.80
152;DHT22;68;48.792;9.164;2024-03-08T16:25:28;10.10;77.10
152;DHT22;68;48.792;9.164;2024-03-08T16:27:55;10.00;76.40
152;DHT22;68;48.792;9.164;2024-03-08T16:30:23;10.10;77.00
152;DHT22;68;48.792;9.164;2024-03-08T16:32:52;10.00;76.70
152;DHT22;68;48.792;9.164;2024-03-08T16:35:19;10.10;76.90
152;DHT22;68;48.792;9.164;2024-03-08T16:37:45;9.90;77.10
152;DHT22;68;48.792;9.164;2024-03-08T16:40:13;9.90;77.70
152;DHT22;68;48.792;9.164;2024-03-08T16:42:43;10.00;77.80
152;DHT22;68;48.792;9.164;2024-03-08T16:45:10;9.90;77.20
152;DHT22;68;48.792;9.164;2024-03-08T16:47:38;9.70;77.60
152;DHT22;68;48.792;9.164;2024-03-08T16:50:06;9.70;77.50
152;DHT22;68;48.792;9.164;2024-03-08T16:52:33;9.70;77.50
152;DHT22;68;48.792;9.164;2024-03-08T16:55:01;9.80;78.10
152;DHT22;68;48.792;9.164;2024-03-08T16:57:28;9.80;77.70
152;DHT22;68;48.792;9.164;2024-03-08T16:59:57;9.80;77.60
152;DHT22;68;48.792;9.164;2024-03-08T17:02:24;9.70;77.90
152;DHT22;68;48.792;9.164;2024-03-08T17:04:52;9.60;78.30
152;DHT22;68;48.792;9.164;2024-03-08T17:07:19;9.30;78.40
152;DHT22;68;48.792;9.164;2024-03-08T17:09:47;9.20;79.30
152;DHT22;68;48.792;9.164;2024-03-08T17:12:14;9.40;78.90
152;DHT22;68;48.792;9.164;2024-03-08T17:14:44;9.40;78.90
152;DHT22;68;48.792;9.164;2024-03-08T17:17:11;9.40;78.60